10分钟前
罗盘
风向 的 风向 290° Albi-Le Séquestre Airport 9/27
风: 13 千吨, 4 beaufort
0 500 1.500 3.000 5.000 8.000 10.000
SCT 3.100 ft
BKN 3.900 ft
BKN 4.700 ft
METAR LFCK 211330Z AUTO 29013KT 9999 SCT031 BKN039 BKN047 06/M01 Q1030 NOSIG

METAR定义 | 嵌入

24小时趋势

航班类别VFRLIFR
温度6 °C0 °C
风速10 千吨0 千吨
能见度10 公里+0 米

更多历史数据

下载我们的安卓应用程序

从你的主屏幕上轻松地访问你的航空天气。
只需一次付费,您就可以获得无广告的体验。

您会帮助我们保持Metar-Taf.com正常运行吗?
您的贡献有助于网站的进一步开发并支付费用。

没有更多广告

您是捐款5美元还是更多?然后,我们将永远不会再向您展示广告,这是我们永恒的感谢!
捐赠前先登录

METAR Albi-Le Séquestre Airport

Albi-Le Séquestre Airport是Albi/Le Séquestre,法国中的中型机场。 机场有{a,plural,=1{一条跑道} other{#跑道}}: 9/27

Albi-Le Séquestre Airport最近未发布观察结果。相反,我们向您显示42 km的报告Castres-Mazamet Airport。 该报告是针对2022年1月21日 14:30, 当地时间进行的。

机场观察

风来自西北西 (290°)方向,速度为13 千吨。

可见度为10 公里 或者更多。

有疏云,零星散落的云朵在3.100 ft的高度, 碎云在3.900 ft的高度 和 碎云在4.700 ft的高度。 破损或更高的上限为3.900 ft。

温度为6 °C,阵风为1 °C。 露点为-1 °C,相对湿度为61%。 海平面上的气压为1030 压力 (QNH)。

白天

今天,太阳从08:18升起,在17:46降落。 这适用于Albi-Le Séquestre Airport,世界夏令时可能有所不同。 当地时间与世界标准时间之间的时差为+1 小时。 当前,没有夏令时有效。

公司介绍

在这个机场,你可以找到跳伞中心。 本场上唯一已知的公司是Fun Parachutisme, Albi。

体会

到Vliegles.nl去找飞行课程,跳伞和其他飞行体验。 浏览页面,了解Albi-Le Séquestre Airport附近所有可用的活动。 你也可以使用搜索功能来寻找你所在地附近的特定飞行课程、跳伞或其他飞行体验。

您是否要在网站上Albi-Le Séquestre Airport飞行的天气? 阅读更多   自由!